Terminal Aerodrome Forecast
Issued by NWS

Home | Current Version | Previous Version | Text Only | Print | Product List | Glossary On
Versions: 1 2 3 4 5 6 7 8 9 10 11 12 13 14 15 16 17 18 19 20 21 22 23 24 25 26 27 28 29 30 31 32 33 34 35 36
248
FTUS41 KOKX 281132
TAFTEB
TAF
KTEB 281132Z 2812/0112 VRB03KT P6SM OVC100
     FM281600 12004KT P6SM BKN040 OVC080
     FM282100 14006KT P6SM BKN020 OVC040
     FM010000 15006KT 4SM BR BKN006 OVC010
     FM010200 16006KT 2SM -RA BR OVC005
     FM010700 18005KT 1SM -RA BR OVC004 WS020/24045KT
     FM010900 20006KT 3SM BR OVC004 WS020/24045KT=

USA.gov is the U.S. government's official web portal to all federal, state and local government web resources and services.